Time;durP1;ratioP1;P1;durP2;ratioP2;P2;SDS_P1;SDS_P2;PMS_P1;PMS_P2;Temp;Humidity;BMP_temperature;BMP_pressure;BME280_temperature;BME280_humidity;BME280_pressure;Samples;Min_cycle;Max_cycle;Signal;HPM_P1;HPM_P2
2022/04/10 00:01:35;;;;;;;4.00;2.40;;;5.80;99.90;;;5.70;71.33;101209.91;5168416;28;20072;-78
2022/04/10 00:04:07;;;;;;;5.00;2.10;;;5.80;99.90;;;5.67;71.12;101213.97;5168462;28;20047;-79
2022/04/10 00:06:40;;;;;;;5.20;2.20;;;5.80;99.90;;;5.61;71.76;101206.78;5168250;28;20050;-80
2022/04/10 00:09:13;;;;;;;5.25;2.45;;;5.70;99.90;;;5.56;71.63;101217.63;5168580;28;20057;-79
2022/04/10 00:11:45;;;;;;;5.95;2.67;;;5.70;99.90;;;5.47;72.43;101215.34;5168291;28;20077;-80
2022/04/10 00:14:17;;;;;;;8.48;2.10;;;5.70;99.90;;;5.44;72.69;101215.19;5167878;28;20057;-79
2022/04/10 00:16:49;;;;;;;4.90;2.60;;;5.60;99.90;;;5.39;72.93;101212.28;5168450;28;20073;-80
2022/04/10 00:19:22;;;;;;;5.00;2.22;;;5.60;99.90;;;5.35;72.81;101214.63;5168512;28;20127;-79
2022/04/10 00:21:56;;;;;;;6.28;2.15;;;5.50;99.90;;;5.32;72.88;101209.25;5168233;28;20146;-79
2022/04/10 00:24:28;;;;;;;7.07;2.33;;;5.50;99.90;;;5.26;72.92;101214.03;5168114;28;20047;-80
2022/04/10 00:27:00;;;;;;;6.22;2.55;;;5.40;99.90;;;5.22;73.45;101212.06;5168543;28;20046;-81
2022/04/10 00:29:32;;;;;;;4.95;2.17;;;5.40;99.90;;;5.18;73.52;101211.84;5168589;28;20070;-80
2022/04/10 00:32:05;;;;;;;6.90;2.65;;;5.30;99.90;;;5.16;73.73;101208.28;5168517;28;20054;-80
2022/04/10 00:34:37;;;;;;;4.10;2.33;;;5.30;99.90;;;5.13;74.02;101215.84;5168447;28;20054;-79
2022/04/10 00:37:10;;;;;;;4.03;2.33;;;5.30;99.90;;;5.09;74.17;101208.72;5168333;28;20049;-79
2022/04/10 00:39:42;;;;;;;5.07;2.17;;;5.30;99.90;;;5.05;74.08;101206.72;5168455;28;20416;-79
2022/04/10 00:42:15;;;;;;;4.90;2.22;;;5.20;99.90;;;5.00;74.12;101213.28;5167796;28;20054;-78
2022/04/10 00:44:47;;;;;;;7.18;2.75;;;5.10;99.90;;;4.95;74.27;101217.25;5167893;28;20428;-79
2022/04/10 00:47:19;;;;;;;5.90;2.35;;;5.10;99.90;;;4.92;74.74;101217.06;5168017;28;20046;-79
2022/04/10 00:49:51;;;;;;;6.55;3.00;;;5.10;99.90;;;4.86;75.13;101220.16;5167813;28;20072;-80
2022/04/10 00:52:25;;;;;;;8.48;2.17;;;5.00;99.90;;;4.83;74.99;101221.66;5167739;28;20076;-79
2022/04/10 00:54:59;;;;;;;5.35;2.67;;;5.00;99.90;;;4.77;75.00;101229.91;5167384;28;20412;-79
2022/04/10 00:57:31;;;;;;;6.40;2.70;;;5.00;99.90;;;4.72;75.07;101222.63;5167184;28;20050;-79
2022/04/10 01:00:05;;;;;;;3.83;2.33;;;4.90;99.90;;;4.68;75.30;101228.38;5167553;28;20426;-77
2022/04/10 01:02:37;;;;;;;3.88;2.15;;;4.80;99.90;;;4.65;75.52;101235.94;5167558;28;20491;-79
2022/04/10 01:05:10;;;;;;;6.28;2.63;;;4.80;99.90;;;4.60;75.35;101233.94;5167854;28;20285;-80
2022/04/10 01:07:43;;;;;;;7.88;2.90;;;4.80;99.90;;;4.59;75.66;101226.13;5167663;28;20512;-80
2022/04/10 01:10:15;;;;;;;5.60;2.33;;;4.70;99.90;;;4.54;75.34;101223.22;5167432;28;20050;-79
2022/04/10 01:12:47;;;;;;;6.35;2.90;;;4.70;99.90;;;4.52;75.59;101231.66;5166386;28;20493;-78
2022/04/10 01:15:20;;;;;;;3.63;2.47;;;4.70;99.90;;;4.46;75.99;101228.69;5166977;28;20053;-79
2022/04/10 01:17:52;;;;;;;3.95;2.28;;;4.60;99.90;;;4.44;75.91;101226.00;5167251;28;20050;-79
2022/04/10 01:20:25;;;;;;;8.77;2.97;;;4.60;99.90;;;4.42;76.19;101227.56;5167211;28;20057;-78
2022/04/10 01:22:59;;;;;;;6.18;2.55;;;4.60;99.90;;;4.41;76.29;101236.13;5166604;28;20046;-80
2022/04/10 01:25:31;;;;;;;4.30;2.72;;;4.60;99.90;;;4.41;76.42;101230.94;5167559;28;20052;-80
2022/04/10 01:28:12;;;;;;;4.97;2.50;;;4.60;99.90;;;4.41;76.66;101230.94;5166876;28;20047;-80
2022/04/10 01:30:44;;;;;;;6.25;2.53;;;4.60;99.90;;;4.42;76.75;101240.47;5166562;28;20046;-79
2022/04/10 01:33:16;;;;;;;4.10;2.60;;;4.60;99.90;;;4.42;76.69;101235.31;5166855;28;20058;-80
2022/04/10 01:35:49;;;;;;;4.90;2.58;;;4.60;99.90;;;4.41;76.72;101235.22;5167149;28;20051;-79
2022/04/10 01:38:22;;;;;;;5.32;2.30;;;4.60;99.90;;;4.38;76.92;101241.09;5167696;28;20515;-79
2022/04/10 01:40:54;;;;;;;4.70;2.40;;;4.60;99.90;;;4.37;76.55;101234.16;5167120;28;20060;-80
2022/04/10 01:43:26;;;;;;;5.50;2.10;;;4.50;99.90;;;4.36;76.66;101237.50;5166462;28;20057;-79
2022/04/10 01:45:58;;;;;;;5.28;2.17;;;4.50;99.90;;;4.35;76.34;101241.75;5166807;28;20054;-80
2022/04/10 01:48:30;;;;;;;4.38;2.05;;;4.60;99.90;;;4.34;76.24;101233.91;5167005;28;20402;-79
2022/04/10 01:51:02;;;;;;;4.78;2.13;;;4.50;99.90;;;4.34;76.19;101236.50;5166689;28;20050;-79
2022/04/10 01:53:35;;;;;;;5.80;2.38;;;4.50;99.90;;;4.33;76.32;101232.13;5166829;28;20054;-79
2022/04/10 01:56:09;;;;;;;6.45;2.50;;;4.50;99.90;;;4.32;76.18;101235.53;5167216;28;20054;-79
2022/04/10 01:58:43;;;;;;;3.10;2.03;;;4.50;99.90;;;4.26;76.20;101227.38;5167769;28;20054;-80
2022/04/10 02:01:17;;;;;;;7.38;2.53;;;4.50;99.90;;;4.21;76.24;101219.31;5167175;28;20421;-80
2022/04/10 02:03:51;;;;;;;5.43;2.50;;;4.40;99.90;;;4.20;76.46;101224.38;5166181;28;20505;-79
2022/04/10 02:06:23;;;;;;;6.20;2.40;;;4.40;99.90;;;4.13;76.59;101228.22;5165606;28;20349;-79
2022/04/10 02:08:56;;;;;;;5.25;2.33;;;4.30;99.90;;;4.04;76.29;101228.50;5166248;28;20409;-79
2022/04/10 02:11:28;;;;;;;5.72;2.60;;;4.30;99.90;;;3.95;76.49;101224.41;5166619;28;20058;-79
2022/04/10 02:14:00;;;;;;;5.18;2.15;;;4.20;99.90;;;3.84;76.66;101217.59;5167391;28;20046;-80
2022/04/10 02:16:32;;;;;;;4.05;2.17;;;4.10;99.90;;;3.76;77.03;101219.66;5167093;28;20413;-79
2022/04/10 02:19:04;;;;;;;5.28;2.30;;;4.00;99.90;;;3.68;77.11;101216.56;5166467;28;20046;-80
2022/04/10 02:21:36;;;;;;;4.53;2.08;;;3.90;99.90;;;3.63;77.52;101224.75;5165807;28;20046;-79
2022/04/10 02:24:10;;;;;;;5.95;2.72;;;3.90;99.90;;;3.58;77.92;101218.38;5167025;28;20058;-79
2022/04/10 02:26:42;;;;;;;6.75;2.10;;;3.80;99.90;;;3.53;78.12;101226.72;5166416;28;20050;-79
2022/04/10 02:29:14;;;;;;;4.55;2.65;;;3.80;99.90;;;3.49;78.33;101223.81;5166622;28;20337;-79
2022/04/10 02:31:46;;;;;;;6.25;2.42;;;3.70;99.90;;;3.47;78.56;101223.72;5166095;28;20428;-79
2022/04/10 02:34:18;;;;;;;4.57;2.28;;;3.70;99.90;;;3.45;78.53;101230.41;5166899;28;20057;-79
2022/04/10 02:36:50;;;;;;;5.75;2.45;;;3.70;99.90;;;3.42;78.34;101232.81;5165901;28;20065;-79
2022/04/10 02:39:23;;;;;;;2.90;2.13;;;3.60;99.90;;;3.38;78.41;101233.34;5166129;28;20042;-78
2022/04/10 02:41:55;;;;;;;4.70;2.33;;;3.60;99.90;;;3.33;78.43;101236.44;5165343;28;20066;-79
2022/04/10 02:44:27;;;;;;;3.90;2.17;;;3.60;99.90;;;3.25;78.63;101231.59;5166716;28;20054;-80
2022/04/10 02:46:59;;;;;;;6.03;2.22;;;3.50;99.90;;;3.20;79.07;101232.97;5166481;28;20051;-78
2022/04/10 02:49:31;;;;;;;6.20;2.55;;;3.50;99.90;;;3.20;79.05;101232.97;5165963;28;20046;-78
2022/04/10 02:52:03;;;;;;;4.70;2.38;;;3.40;99.90;;;3.18;79.42;101236.22;5165482;28;20050;-78
2022/04/10 02:54:36;;;;;;;6.78;2.88;;;3.40;99.90;;;3.17;79.31;101235.31;5165667;28;20061;-79
2022/04/10 02:57:08;;;;;;;4.03;2.45;;;3.40;99.90;;;3.15;79.48;101241.16;5166504;28;20101;-80
2022/04/10 02:59:40;;;;;;;5.38;2.50;;;3.40;99.90;;;3.14;79.73;101247.09;5165968;28;20047;-79
2022/04/10 03:02:12;;;;;;;4.80;2.13;;;3.40;99.90;;;3.11;80.23;101250.34;5165845;28;20047;-79
2022/04/10 03:04:44;;;;;;;4.03;2.47;;;3.40;99.90;;;3.10;80.44;101252.81;5166413;28;20050;-80
2022/04/10 03:07:16;;;;;;;6.32;2.85;;;3.40;99.90;;;3.09;80.33;101256.19;5166584;28;20046;-79
2022/04/10 03:09:50;;;;;;;5.18;2.35;;;3.30;99.90;;;3.11;80.67;101259.75;5166911;28;20583;-80
2022/04/10 03:12:21;;;;;;;6.25;2.30;;;3.30;99.90;;;3.14;81.44;101260.00;5169520;28;20054;-79
2022/04/10 03:14:53;;;;;;;5.47;2.72;;;3.40;99.90;;;3.17;81.66;101260.19;5169806;28;20050;-80
2022/04/10 03:17:25;;;;;;;5.28;2.25;;;3.40;99.90;;;3.24;81.50;101267.56;5168179;28;20065;-80
2022/04/10 03:19:57;;;;;;;5.40;2.05;;;3.50;99.90;;;3.30;81.29;101267.13;5169883;28;20050;-80
2022/04/10 03:22:29;;;;;;;8.18;2.60;;;3.50;99.90;;;3.34;81.09;101262.28;5169446;28;20394;-80
2022/04/10 03:25:03;;;;;;;6.72;2.50;;;3.50;99.90;;;3.38;80.89;101269.44;5169836;28;20050;-80
2022/04/10 03:27:35;;;;;;;5.68;2.30;;;3.60;99.90;;;3.42;81.04;101265.41;5169435;28;20046;-80
2022/04/10 03:30:08;;;;;;;6.15;2.75;;;3.60;99.90;;;3.45;80.81;101266.50;5169826;28;20057;-79
2022/04/10 03:32:42;;;;;;;8.02;2.47;;;3.70;99.90;;;3.47;80.64;101267.53;5169877;28;20443;-79
2022/04/10 03:35:14;;;;;;;7.47;2.58;;;3.70;99.90;;;3.48;80.58;101271.91;5169513;28;20049;-81
2022/04/10 03:37:46;;;;;;;5.68;2.60;;;3.70;99.90;;;3.50;80.43;101272.00;5169540;28;20050;-80
2022/04/10 03:40:19;;;;;;;4.55;2.25;;;3.70;99.90;;;3.53;80.59;101273.13;5169516;28;20058;-80
2022/04/10 03:42:51;;;;;;;4.47;2.25;;;3.80;99.90;;;3.60;80.80;101274.44;5168496;28;20050;-79
2022/04/10 03:45:23;;;;;;;9.82;2.50;;;3.80;99.90;;;3.64;80.30;101279.00;5169514;28;20057;-79
2022/04/10 03:47:55;;;;;;;5.22;2.55;;;3.80;99.90;;;3.67;80.16;101274.09;5169380;28;20054;-79
2022/04/10 03:50:27;;;;;;;6.22;2.60;;;3.90;99.90;;;3.68;80.38;101277.56;5168832;28;20077;-79
2022/04/10 03:52:59;;;;;;;4.80;2.25;;;3.90;99.90;;;3.69;80.16;101284.50;5168605;28;20058;-79
2022/04/10 03:55:33;;;;;;;6.53;2.20;;;3.90;99.90;;;3.68;80.01;101282.72;5169160;28;20050;-79
2022/04/10 03:58:05;;;;;;;3.67;2.15;;;3.90;99.90;;;3.67;80.49;101284.41;5168404;28;20051;-80
2022/04/10 04:00:37;;;;;;;5.50;2.55;;;3.90;99.90;;;3.66;80.50;101289.44;5168058;28;20066;-80
2022/04/10 04:03:09;;;;;;;5.57;2.30;;;3.90;99.90;;;3.64;80.89;101289.31;5168317;28;20088;-79
2022/04/10 04:05:41;;;;;;;6.10;2.33;;;3.90;99.90;;;3.66;80.83;101297.19;5168894;28;20416;-79
2022/04/10 04:08:13;;;;;;;5.55;2.63;;;3.90;99.90;;;3.68;81.15;101291.34;5169028;28;20065;-79
2022/04/10 04:10:46;;;;;;;6.60;2.95;;;3.90;99.90;;;3.70;81.25;101294.03;5168510;28;20496;-80
2022/04/10 04:13:18;;;;;;;4.60;2.17;;;3.90;99.90;;;3.74;81.53;101303.78;5168479;28;20053;-79
2022/04/10 04:15:50;;;;;;;6.18;2.70;;;3.90;99.90;;;3.79;81.14;101302.41;5168352;28;20428;-80
2022/04/10 04:18:22;;;;;;;9.13;2.65;;;3.90;99.90;;;3.82;81.41;101307.78;5169140;28;20062;-80
2022/04/10 04:20:54;;;;;;;5.53;2.30;;;4.00;99.90;;;3.88;81.21;101308.19;5169631;28;20440;-79
2022/04/10 04:23:26;;;;;;;6.85;2.33;;;4.10;99.90;;;3.91;81.15;101303.28;5169257;28;20058;-79
2022/04/10 04:25:59;;;;;;;4.15;2.17;;;4.10;99.90;;;3.94;80.97;101318.94;5174805;28;20051;-79
2022/04/10 04:28:32;;;;;;;5.35;2.42;;;4.10;99.90;;;3.96;81.07;101319.94;5174679;28;20054;-79
2022/04/10 04:31:04;;;;;;;9.32;2.55;;;4.20;99.90;;;3.99;81.17;101316.69;5173280;28;20046;-79
2022/04/10 04:33:36;;;;;;;3.90;2.10;;;4.20;99.90;;;4.02;81.06;101317.78;5169488;28;20061;-78
2022/04/10 04:36:08;;;;;;;5.43;2.40;;;4.20;99.90;;;4.05;80.97;101318.00;5168434;28;20050;-80
2022/04/10 04:38:40;;;;;;;9.35;2.83;;;4.20;99.90;;;4.08;81.01;101328.53;5168216;28;20049;-79
2022/04/10 04:41:13;;;;;;;8.18;2.17;;;4.20;99.90;;;4.11;81.02;101327.88;5195872;23;20103;-77
2022/04/10 04:43:45;;;;;;;3.58;2.22;;;4.30;99.90;;;4.14;81.39;101328.06;5204781;28;20466;-77
2022/04/10 04:46:17;;;;;;;3.30;2.17;;;4.30;99.90;;;4.14;81.30;101333.22;5207207;28;20060;-77
2022/04/10 04:48:49;;;;;;;4.97;2.65;;;4.30;99.90;;;4.15;81.61;101334.13;5207148;28;20053;-77
2022/04/10 04:51:21;;;;;;;3.47;2.20;;;4.30;99.90;;;4.16;81.64;101335.91;5206954;28;20496;-78
2022/04/10 04:53:52;;;;;;;3.75;2.35;;;4.30;99.90;;;4.20;81.29;101337.91;5207766;28;20511;-76
2022/04/10 04:56:26;;;;;;;4.63;2.38;;;4.30;99.90;;;4.21;81.09;101342.28;5207932;28;20049;-77
2022/04/10 04:58:58;;;;;;;8.25;2.65;;;4.40;99.90;;;4.23;80.94;101345.84;5206802;28;20048;-78
2022/04/10 05:01:30;;;;;;;20.20;9.50;;;4.40;99.90;;;4.25;80.50;101337.44;5206911;28;20050;-77
2022/04/10 05:04:02;;;;;;;9.50;3.97;;;4.40;99.90;;;4.27;80.31;101345.28;5206702;28;20053;-77
2022/04/10 05:06:34;;;;;;;5.82;2.30;;;4.50;99.90;;;4.26;79.89;101343.50;5206730;28;20450;-77
2022/04/10 05:09:06;;;;;;;6.97;2.60;;;4.40;99.90;;;4.32;79.90;101356.81;5206780;28;20049;-76
2022/04/10 05:11:40;;;;;;;5.70;2.78;;;4.50;99.90;;;4.35;79.71;101349.28;5206820;28;20057;-76
2022/04/10 05:14:12;;;;;;;6.20;2.95;;;4.50;99.90;;;4.37;79.68;101352.88;5206823;28;20053;-77
2022/04/10 05:16:43;;;;;;;6.38;2.85;;;4.50;99.90;;;4.37;79.69;101360.63;5206844;28;20527;-77
2022/04/10 05:19:15;;;;;;;7.13;3.05;;;4.50;99.90;;;4.34;79.88;101363.88;5206563;28;20054;-77
2022/04/10 05:21:47;;;;;;;4.50;2.38;;;4.50;99.90;;;4.35;80.04;101364.75;5206441;28;20076;-75
2022/04/10 05:24:19;;;;;;;4.53;2.45;;;4.50;99.90;;;4.39;80.20;101361.63;5206577;28;20063;-77
2022/04/10 05:26:53;;;;;;;7.72;2.65;;;4.50;99.90;;;4.47;80.18;101369.88;5206566;28;20113;-77
2022/04/10 05:29:25;;;;;;;5.07;2.22;;;4.60;99.90;;;4.55;80.09;101369.59;5206883;28;20059;-78
2022/04/10 05:31:56;;;;;;;4.65;2.50;;;4.60;99.90;;;4.65;80.69;101370.25;5206498;28;20049;-78
2022/04/10 05:34:28;;;;;;;4.07;2.30;;;4.70;99.90;;;4.72;80.29;101359.53;5206640;28;20419;-77
2022/04/10 05:37:00;;;;;;;5.05;2.70;;;4.80;99.90;;;4.79;80.11;101374.63;5207004;28;20049;-79
2022/04/10 05:39:32;;;;;;;5.18;2.50;;;4.90;99.90;;;4.90;80.00;101373.69;5206823;28;20045;-76
2022/04/10 05:42:07;;;;;;;6.57;2.20;;;5.00;99.90;;;5.00;79.84;101380.34;5205866;28;20060;-77
2022/04/10 05:44:39;;;;;;;7.10;2.40;;;5.00;99.90;;;5.11;79.39;101382.84;5206688;28;20053;-77
2022/04/10 05:47:11;;;;;;;6.57;2.08;;;5.20;99.90;;;5.24;78.98;101394.00;5206272;28;20049;-77
2022/04/10 05:49:43;;;;;;;7.25;2.50;;;5.20;99.90;;;5.31;78.59;101393.59;5206553;28;20415;-77
2022/04/10 05:52:15;;;;;;;7.65;2.67;;;5.40;99.90;;;5.34;78.54;101383.44;5206236;28;20056;-77
2022/04/10 05:54:47;;;;;;;5.20;2.30;;;5.40;99.90;;;5.57;77.86;101393.59;5206165;28;20053;-77
2022/04/10 05:57:20;;;;;;;3.55;2.00;;;5.50;99.90;;;5.82;77.38;101390.88;5206544;28;20049;-77
2022/04/10 05:59:52;;;;;;;6.15;2.60;;;5.70;99.90;;;6.10;76.44;101390.94;5206211;28;20046;-76
2022/04/10 06:02:24;;;;;;;7.60;2.58;;;5.90;99.90;;;6.35;75.13;101390.75;5205627;28;20053;-74
2022/04/10 06:04:56;;;;;;;8.07;3.75;;;6.10;99.90;;;6.56;74.10;101403.22;5206192;28;20056;-77
2022/04/10 06:07:28;;;;;;;5.43;2.97;;;6.30;99.90;;;6.66;72.60;101401.28;5206313;28;20050;-76
2022/04/10 06:10:00;;;;;;;3.95;2.60;;;6.40;99.90;;;6.68;72.65;101396.19;5206531;28;20411;-76
2022/04/10 06:12:34;;;;;;;5.68;3.33;;;6.50;99.90;;;6.80;71.43;101396.91;5205686;28;20059;-76
2022/04/10 06:15:06;;;;;;;6.20;3.25;;;6.60;99.90;;;7.05;70.49;101400.16;5205956;28;20396;-76
2022/04/10 06:17:38;;;;;;;7.00;3.20;;;6.80;99.90;;;7.38;69.78;101396.81;5205754;28;20053;-76
2022/04/10 06:20:12;;;;;;;4.72;2.60;;;7.00;99.90;;;7.73;68.04;101401.41;5206179;28;20049;-75
2022/04/10 06:22:44;;;;;;;10.05;5.43;;;7.20;99.90;;;7.91;67.29;101410.22;5205883;28;20487;-75
2022/04/10 06:25:15;;;;;;;5.93;3.13;;;7.40;99.90;;;8.22;65.60;101409.28;5206200;28;20056;-77
2022/04/10 06:27:49;;;;;;;6.88;3.25;;;7.60;99.90;;;8.61;64.58;101413.16;5206259;28;20060;-75
2022/04/10 06:30:21;;;;;;;8.00;2.95;;;7.90;99.90;;;9.06;63.40;101419.78;5205896;28;20053;-78
2022/04/10 06:32:53;;;;;;;7.53;2.70;;;8.20;99.90;;;9.41;61.88;101416.38;5205653;28;20563;-76
2022/04/10 06:35:25;;;;;;;6.95;2.67;;;8.50;99.90;;;10.96;58.75;101419.25;5206171;28;20499;-76
2022/04/10 06:37:57;;;;;;;7.30;2.67;;;9.30;99.90;;;12.93;53.18;101418.25;5205780;28;20049;-76
2022/04/10 06:40:29;;;;;;;5.13;2.50;;;10.70;98.00;;;14.91;47.37;101415.72;5206320;28;20423;-76
2022/04/10 06:43:06;;;;;;;8.60;2.80;;;12.20;93.20;;;15.96;42.55;101415.75;5205514;28;20057;-77
2022/04/10 06:45:38;;;;;;;5.35;2.65;;;13.30;82.20;;;15.31;42.29;101424.66;5206051;28;20422;-76
2022/04/10 06:48:10;;;;;;;6.63;2.83;;;13.50;76.30;;;14.02;44.03;101422.75;5205596;28;20056;-77
2022/04/10 06:50:42;;;;;;;5.50;2.67;;;13.10;75.50;;;13.49;45.51;101429.78;5205642;28;20144;-77
2022/04/10 06:53:14;;;;;;;5.00;3.00;;;12.70;76.60;;;14.37;45.22;101424.69;5206626;28;20061;-76
2022/04/10 06:55:46;;;;;;;8.40;2.45;;;12.80;78.90;;;16.34;41.87;101431.50;5210166;28;20060;-76
2022/04/10 06:58:22;;;;;;;7.45;2.85;;;13.80;76.80;;;18.17;37.95;101434.78;5210216;28;20046;-76
2022/04/10 07:00:54;;;;;;;5.20;2.72;;;15.20;71.20;;;19.63;35.42;101445.28;5209716;28;20089;-76
2022/04/10 07:03:26;;;;;;;7.28;3.10;;;16.50;66.80;;;20.49;32.97;101438.78;5209776;28;20049;-76
2022/04/10 07:05:58;;;;;;;6.03;3.33;;;17.40;61.70;;;21.10;32.11;101446.00;5209817;28;20058;-76
2022/04/10 07:08:32;;;;;;;5.53;2.70;;;18.20;59.30;;;20.76;31.71;101440.63;5210258;28;20330;-75
2022/04/10 07:11:04;;;;;;;7.63;2.92;;;18.40;57.00;;;19.97;32.70;101446.41;5209350;28;20052;-76
2022/04/10 07:13:37;;;;;;;5.78;2.75;;;18.10;56.80;;;19.52;34.17;101441.63;5209361;28;20052;-76
2022/04/10 07:16:09;;;;;;;5.22;3.05;;;17.90;58.00;;;18.98;34.66;101442.88;5209444;28;20060;-76
2022/04/10 07:18:41;;;;;;;5.70;2.47;;;17.50;58.10;;;18.49;35.51;101442.25;5209561;28;20057;-77
2022/04/10 07:21:13;;;;;;;4.47;2.60;;;17.20;58.80;;;19.32;34.31;101437.91;5209899;28;20050;-76
2022/04/10 07:23:45;;;;;;;6.95;2.58;;;17.40;58.70;;;19.79;33.73;101436.56;5209494;28;20302;-76
2022/04/10 07:26:18;;;;;;;7.15;2.75;;;17.70;58.10;;;20.21;33.38;101450.97;5209468;28;20118;-76
2022/04/10 07:28:52;;;;;;;6.88;2.55;;;18.00;57.80;;;21.11;32.14;101458.38;5209675;28;20140;-75
2022/04/10 07:31:24;;;;;;;;;;;18.60;56.90;;;21.16;31.97;101451.34;5209561;28;20053;-77
2022/04/10 07:33:56;;;;;;;7.53;2.88;;;18.80;56.10;;;20.45;31.69;101457.28;5209738;28;19927;-77
2022/04/10 07:36:28;;;;;;;5.40;2.65;;;18.60;54.80;;;19.52;32.91;101457.47;5209664;28;20621;-76
2022/04/10 07:39:00;;;;;;;5.50;2.92;;;18.00;55.20;;;18.66;33.58;101466.25;5210100;28;20050;-76
2022/04/10 07:41:32;;;;;;;6.25;2.78;;;17.50;55.30;;;17.60;35.22;101469.97;5210425;28;20045;-76
2022/04/10 07:44:06;;;;;;;5.32;2.75;;;16.70;56.50;;;16.34;37.48;101462.19;5214480;28;20152;-76
2022/04/10 07:49:28;;;;;;;8.07;3.47;;;15.30;61.00;;;17.67;37.51;101467.38;5208564;28;20057;-76
2022/04/10 07:52:01;;;;;;;5.38;2.65;;;15.60;61.90;;;18.91;35.47;101478.03;5208426;28;20479;-76
2022/04/10 07:54:33;;;;;;;8.02;3.03;;;16.30;60.70;;;20.33;32.87;101477.47;5209279;28;20057;-76
2022/04/10 07:57:05;;;;;;;5.18;2.55;;;17.10;58.70;;;21.07;31.09;101484.00;5209113;28;20058;-77
2022/04/10 07:59:38;;;;;;;6.82;2.75;;;17.80;56.60;;;21.79;30.72;101470.84;5208844;28;20052;-75
2022/04/10 08:02:10;;;;;;;8.70;3.35;;;18.40;56.40;;;23.08;28.43;101486.44;5208121;28;20057;-76
2022/04/10 08:04:42;;;;;;;7.45;2.97;;;19.30;54.20;;;23.65;26.70;101489.63;5207535;28;20049;-77
2022/04/10 08:07:14;;;;;;;5.68;2.97;;;19.90;51.70;;;23.70;27.16;101485.16;5208844;28;20053;-77
2022/04/10 08:09:46;;;;;;;6.68;2.72;;;20.10;51.80;;;24.45;26.17;101487.06;5208532;28;20050;-77
2022/04/10 08:12:18;;;;;;;7.57;3.00;;;20.60;50.60;;;24.87;25.56;101483.91;5208566;28;20045;-76
2022/04/10 08:14:51;;;;;;;6.68;3.00;;;21.00;50.10;;;25.12;24.75;101494.25;5209351;28;20046;-77
2022/04/10 08:17:23;;;;;;;6.10;2.90;;;21.30;48.50;;;25.04;25.32;101491.72;5217744;28;20060;-76
2022/04/10 08:19:55;;;;;;;4.32;2.75;;;21.50;49.00;;;24.11;25.57;101495.41;5222075;28;20422;-76
2022/04/10 08:22:28;;;;;;;7.78;2.75;;;21.10;48.00;;;22.79;27.10;101499.84;5219885;28;20050;-76
2022/04/10 08:25:03;;;;;;;6.38;3.10;;;20.30;49.00;;;20.54;29.41;101503.25;5212012;28;20045;-76
2022/04/10 08:27:37;;;;;;;6.72;2.75;;;19.10;50.00;;;18.60;32.12;101505.78;5208577;28;20486;-76
2022/04/10 08:30:12;;;;;;;9.60;2.83;;;17.80;52.00;;;17.76;34.20;101500.13;5208022;28;20046;-75
2022/04/10 08:32:45;;;;;;;6.25;2.78;;;16.80;54.30;;;18.08;34.69;101498.00;5207748;28;20049;-76
2022/04/10 08:35:18;;;;;;;7.15;2.42;;;16.60;56.20;;;17.47;34.67;101507.47;5208372;28;20049;-76
2022/04/10 08:37:51;;;;;;;5.55;2.95;;;16.20;55.80;;;16.40;35.30;101505.31;5207978;28;20116;-75
2022/04/10 08:40:23;;;;;;;3.70;2.17;;;15.50;55.50;;;15.25;36.40;101503.28;5208397;28;20431;-76
2022/04/10 08:42:55;;;;;;;9.43;2.92;;;14.80;55.80;;;14.23;38.61;101512.56;5207036;28;20059;-77
2022/04/10 08:45:29;;;;;;;6.22;2.97;;;14.00;58.00;;;13.43;40.85;101505.53;5207653;28;20061;-76
2022/04/10 08:48:02;;;;;;;6.32;2.80;;;13.30;60.40;;;12.74;42.40;101505.66;5207548;28;20141;-77
2022/04/10 08:50:34;;;;;;;10.27;3.55;;;12.60;61.70;;;12.18;43.98;101513.09;5207200;28;20052;-76
2022/04/10 08:53:07;;;;;;;7.57;2.63;;;12.20;63.70;;;12.02;47.88;101509.81;5207452;28;20060;-75
2022/04/10 08:55:39;;;;;;;7.65;2.58;;;11.90;69.90;;;11.91;46.41;101512.00;5208195;28;20067;-76
2022/04/10 08:58:11;;;;;;;5.43;2.40;;;11.80;67.80;;;11.76;46.55;101511.34;5207191;28;20049;-76
2022/04/10 09:00:45;;;;;;;6.20;2.28;;;11.60;67.50;;;11.59;47.24;101505.41;5207445;28;20056;-76
2022/04/10 09:03:18;;;;;;;3.63;2.03;;;11.50;67.90;;;11.89;46.92;101506.72;5207139;28;20056;-76
2022/04/10 09:06:03;;;;;;;3.22;1.77;;;11.60;67.80;;;12.31;44.36;101513.56;5207487;28;20057;-76
2022/04/10 09:08:35;;;;;;;5.70;2.28;;;11.80;65.80;;;12.22;43.83;101504.56;5206946;28;20056;-77
2022/04/10 09:11:09;;;;;;;7.28;2.53;;;11.90;64.90;;;11.90;44.45;101511.09;5206944;28;20389;-77
2022/04/10 09:13:46;;;;;;;5.82;2.13;;;11.80;65.10;;;11.63;44.87;101521.28;5206934;28;20049;-76
2022/04/10 09:16:22;;;;;;;4.32;1.85;;;11.60;65.50;;;11.51;45.53;101514.63;5206571;28;20059;-76
2022/04/10 09:18:56;;;;;;;3.17;1.88;;;11.50;65.90;;;11.42;45.25;101520.38;5206766;28;20577;-76
2022/04/10 09:21:30;;;;;;;7.22;2.20;;;11.40;65.70;;;11.46;45.57;101522.25;5206269;28;20060;-77
2022/04/10 09:24:04;;;;;;;4.22;1.58;;;11.40;66.30;;;12.06;45.97;101515.25;5206865;28;20061;-77
2022/04/10 09:26:48;;;;;;;3.50;1.35;;;11.80;67.70;;;12.48;44.52;101516.03;5206957;28;20055;-77
2022/04/10 09:29:22;;;;;;;2.58;1.17;;;12.20;66.40;;;12.61;41.45;101512.16;5206376;28;20388;-76
2022/04/10 09:31:55;;;;;;;4.57;1.60;;;12.30;62.30;;;12.46;41.70;101511.59;5206164;28;20217;-76
2022/04/10 09:34:27;;;;;;;5.22;1.60;;;12.30;62.10;;;12.17;42.06;101516.53;5206682;28;20053;-75
2022/04/10 09:37:05;;;;;;;4.38;1.70;;;12.10;62.10;;;11.86;42.83;101510.91;5206959;28;20056;-76
2022/04/10 09:39:39;;;;;;;5.47;1.80;;;11.90;62.90;;;11.66;43.52;101512.66;5206748;28;20065;-76
2022/04/10 09:42:12;;;;;;;4.38;1.52;;;11.70;63.80;;;11.95;44.59;101509.56;5206126;28;20053;-76
2022/04/10 09:44:44;;;;;;;5.40;1.80;;;11.80;65.70;;;12.27;44.64;101502.13;5206994;28;20426;-76
2022/04/10 09:47:17;;;;;;;6.28;1.83;;;12.00;65.70;;;12.84;42.93;101499.03;5206733;28;20136;-76
2022/04/10 09:49:52;;;;;;;4.93;1.92;;;12.40;64.40;;;13.21;41.18;101509.13;5206334;28;20051;-76
2022/04/10 09:52:24;;;;;;;3.83;1.33;;;12.70;62.20;;;13.56;41.15;101510.34;5206354;28;20534;-76
2022/04/10 09:54:57;;;;;;;3.38;1.90;;;13.00;62.40;;;13.57;40.23;101510.41;5206900;28;20046;-76
2022/04/10 09:57:29;;;;;;;6.93;1.98;;;13.20;60.90;;;13.81;39.84;101510.31;5206539;28;20052;-76
2022/04/10 10:00:05;;;;;;;4.68;1.63;;;13.40;60.40;;;13.94;39.15;101509.00;5206686;28;20415;-77
2022/04/10 10:02:38;;;;;;;4.00;1.85;;;13.60;59.50;;;13.82;38.71;101511.22;5206307;28;20073;-77
2022/04/10 10:05:10;;;;;;;3.33;1.52;;;13.60;58.50;;;13.50;38.67;101504.94;5207194;28;20163;-76
2022/04/10 10:07:44;;;;;;;5.35;1.98;;;13.40;58.50;;;13.11;40.11;101502.66;5206313;28;20045;-76
2022/04/10 10:10:19;;;;;;;3.90;1.77;;;13.10;59.70;;;12.81;40.92;101506.78;5206366;28;20056;-76
2022/04/10 10:12:53;;;;;;;4.60;2.10;;;12.80;60.50;;;12.62;41.27;101498.22;5206085;28;20132;-77
2022/04/10 10:15:26;;;;;;;3.80;2.17;;;12.60;61.10;;;12.53;41.68;101497.91;5206228;28;20111;-78
2022/04/10 10:18:03;;;;;;;4.90;2.00;;;12.50;61.80;;;12.42;41.98;101501.81;5206535;28;20061;-77
2022/04/10 10:20:38;;;;;;;4.95;2.10;;;12.30;62.20;;;12.36;42.62;101499.84;5206151;28;20045;-77
2022/04/10 10:23:12;;;;;;;4.15;1.92;;;12.20;63.20;;;12.44;43.26;101498.41;5205453;28;20050;-77
2022/04/10 10:25:52;;;;;;;4.35;1.73;;;12.20;64.00;;;12.84;43.13;101485.94;5205516;28;20064;-77
2022/04/10 10:29:05;;;;;;;5.43;2.08;;;12.50;64.40;;;13.38;41.96;101491.41;5207207;28;20058;-76
2022/04/10 10:32:06;;;;;;;4.55;2.10;;;12.80;63.60;;;13.69;41.54;101489.00;5209896;28;20395;-77
2022/04/10 10:34:42;;;;;;;;;;;13.20;63.00;;;13.91;39.47;101497.53;5208714;28;20050;-76
2022/04/10 10:37:14;;;;;;;3.00;1.60;;;13.30;60.20;;;13.86;39.03;101497.38;5210044;28;19928;-77
2022/04/10 10:39:47;;;;;;;3.03;1.77;;;13.40;59.90;;;13.53;38.91;101491.91;5210440;28;20068;-78
2022/04/10 10:42:19;;;;;;;3.80;1.75;;;13.20;58.80;;;13.11;38.68;101496.53;5284299;22;20041;-73
2022/04/10 10:44:52;;;;;;;3.03;1.35;;;12.90;58.20;;;12.58;40.38;101500.66;5230303;28;20068;-72
2022/04/10 10:47:25;;;;;;;3.03;1.50;;;12.50;60.00;;;12.09;40.93;101497.06;5230552;28;20136;-74